Mendon, Massachusetts
Current Conditions -  °F | °C
As of 11:35 PM on Wednesday 22 Oct 2014 (Local Time) from KSFZ Reporting Station
Overcast Overcast  
Wind Chill: 50°   Ceiling: 1500
Heat Index: 50°   Visibility: 5mi
Dew Point: 43°   Wind: 18mph
Humidity: 76%   Direction: 10°N
Pressure: 29.76"   Gusts: 29mph
Location:  42.11°N, 71.55°W
Report Text: KSFZ 230335Z 01016G25KT 5SM SCT008 BKN015 OVC024 10/06 A2976 RMK AO1 LTG DSNT NW P0013
Loading
Personal Weather Stations






























Interactive Weather Map
Tropical Storm Tracking
New forecast layout! Learn more

10-Day Weather Forecast

Advertisements
Track Severe Weather on mobile